Terminal Aerodrome Forecast
Issued by NWS

Home | Current Version | Previous Version | Text Only | Print | Product List | Glossary On
Versions: 1 2 3 4 5 6 7 8 9 10 11 12 13 14
000
FTUS44 KLIX 031606 AAA
TAFGPT
TAF AMD
KGPT 031606Z 0316/0412 07014KT P6SM VCSH OVC050
     FM040000 09015KT P6SM -RA BKN025
     FM040500 09013G21KT P6SM -RA OVC010=

USA.gov is the U.S. government's official web portal to all federal, state and local government web resources and services.